createdAt,value
2023-01-13T00:01:11.868Z,100082.47
2023-01-13T00:03:38.660Z,100078.31
2023-01-13T00:06:06.864Z,100084.16
2023-01-13T00:08:33.986Z,100078.31
2023-01-13T00:11:00.557Z,100077.25
2023-01-13T00:13:27.073Z,100081.38
2023-01-13T00:16:01.819Z,100075.94
2023-01-13T00:18:28.480Z,100078.41
2023-01-13T00:21:12.833Z,100072.97
2023-01-13T00:23:40.061Z,100074.16
2023-01-13T00:26:09.284Z,100076.59
2023-01-13T00:28:35.961Z,100068.66
2023-01-13T00:31:13.843Z,100061.75
2023-01-13T00:33:41.317Z,100057.22
2023-01-13T00:36:10.915Z,100055.78
2023-01-13T00:38:38.926Z,100057.03
2023-01-13T00:41:14.217Z,100049.41
2023-01-13T00:43:41.395Z,100049.09
2023-01-13T00:46:10.491Z,100051.56
2023-01-13T00:48:38.113Z,100053.53
2023-01-13T00:51:17.092Z,100053.53
2023-01-13T00:53:46.563Z,100046.59
2023-01-13T00:56:15.173Z,100051.75
2023-01-13T00:58:43.497Z,100051.75
2023-01-13T01:01:22.247Z,100046.78
2023-01-13T01:03:52.973Z,100044.81
2023-01-13T01:06:21.982Z,100048.75
2023-01-13T01:08:48.964Z,100059.34
2023-01-13T01:11:27.163Z,100059.81
2023-01-13T01:13:55.505Z,100055.88
2023-01-13T01:16:24.290Z,100067.69
2023-01-13T01:18:52.486Z,100058.31
2023-01-13T01:21:19.715Z,100066.91
2023-01-13T01:23:46.335Z,100067.69
2023-01-13T01:26:22.007Z,100080.50
2023-01-13T01:28:49.255Z,100081.25
2023-01-13T01:31:18.495Z,100079.47
2023-01-13T01:33:47.522Z,100084.59
2023-01-13T01:36:16.689Z,100093.53
2023-01-13T01:38:43.971Z,100097.91
2023-01-13T01:41:22.773Z,100099.13
2023-01-13T01:44:00.212Z,100099.13
2023-01-13T01:46:37.412Z,100102.59
2023-01-13T01:49:25.046Z,100096.88
2023-01-13T01:52:00.320Z,100099.59
2023-01-13T01:54:37.809Z,100110.91
2023-01-13T01:57:05.549Z,100102.50
2023-01-13T01:59:33.868Z,100082.00
2023-01-13T02:02:00.814Z,100086.66
2023-01-13T02:04:38.519Z,100078.28
2023-01-13T02:07:05.916Z,100075.56
2023-01-13T02:09:33.468Z,100079.00
2023-01-13T02:12:18.619Z,100074.81
2023-01-13T02:14:45.812Z,100089.13
2023-01-13T02:17:21.317Z,100079.19
2023-01-13T02:20:07.065Z,100075.00
2023-01-13T02:22:58.362Z,100076.22
2023-01-13T02:25:27.777Z,100074.25
2023-01-13T02:28:08.052Z,100069.72
2023-01-13T02:31:28.252Z,100075.91
2023-01-13T02:34:16.959Z,100081.34
2023-01-13T02:37:16.591Z,100080.78
2023-01-13T02:39:57.476Z,100081.97
2023-01-13T02:42:48.354Z,100082.47
2023-01-13T02:45:28.472Z,100080.22
2023-01-13T02:47:57.677Z,100091.09
2023-01-13T02:50:58.880Z,100083.88
2023-01-13T02:53:31.438Z,100085.38
2023-01-13T02:56:00.515Z,100081.63
2023-01-13T02:58:29.712Z,100083.88
2023-01-13T03:00:56.864Z,100087.06
2023-01-13T03:03:23.687Z,100081.63
2023-01-13T03:05:53.741Z,100085.84
2023-01-13T03:08:43.225Z,100080.88
2023-01-13T03:11:12.858Z,100082.81
2023-01-13T03:13:55.873Z,100084.53
2023-01-13T03:16:48.033Z,100094.16
2023-01-13T03:19:14.489Z,100094.63
2023-01-13T03:21:51.817Z,100093.88
2023-01-13T03:24:34.378Z,100096.59
2023-01-13T03:27:25.745Z,100091.34
2023-01-13T03:30:04.580Z,100104.16
2023-01-13T03:32:36.791Z,100108.09
2023-01-13T03:35:11.982Z,100112.47
2023-01-13T03:37:43.915Z,100113.97
2023-01-13T03:40:18.773Z,100122.13
2023-01-13T03:43:08.684Z,100120.63
2023-01-13T03:45:37.223Z,100136.13
2023-01-13T03:48:10.259Z,100134.94
2023-01-13T03:50:56.349Z,100130.88
2023-01-13T03:53:31.429Z,100133.59
2023-01-13T03:56:27.641Z,100137.53
2023-01-13T03:58:54.942Z,100143.44
2023-01-13T04:01:24.178Z,100140.00
2023-01-13T04:03:56.577Z,100147.63
2023-01-13T04:06:27.746Z,100155.75
2023-01-13T04:09:11.914Z,100158.66
2023-01-13T04:11:43.700Z,100158.19
2023-01-13T04:14:12.903Z,100153.22
2023-01-13T04:16:39.811Z,100148.56
2023-01-13T04:19:06.581Z,100146.31
2023-01-13T04:21:34.787Z,100140.88
2023-01-13T04:24:01.261Z,100140.16
2023-01-13T04:26:27.696Z,100132.75
2023-01-13T04:28:55.470Z,100134.00
2023-01-13T04:31:22.042Z,100129.00
2023-01-13T04:33:48.617Z,100130.22
2023-01-13T04:36:15.748Z,100126.28
2023-01-13T04:38:42.321Z,100117.91
2023-01-13T04:41:08.831Z,100124.03
2023-01-13T04:43:35.259Z,100128.44
2023-01-13T04:46:01.853Z,100128.44
2023-01-13T04:48:28.301Z,100136.59
2023-01-13T04:50:54.740Z,100135.81
2023-01-13T04:53:21.218Z,100140.50
2023-01-13T04:55:49.623Z,100139.75
2023-01-13T04:58:16.299Z,100147.59
2023-01-13T05:00:42.805Z,100152.28
2023-01-13T05:03:09.449Z,100144.59
2023-01-13T05:05:36.186Z,100136.44
2023-01-13T05:08:02.682Z,100143.09
2023-01-13T05:10:29.266Z,100148.53
2023-01-13T05:13:14.355Z,100136.19
2023-01-13T05:16:00.373Z,100141.63
2023-01-13T05:18:29.375Z,100150.97
2023-01-13T05:20:56.026Z,100141.78
2023-01-13T05:23:40.790Z,100149.16
2023-01-13T05:26:07.444Z,100148.69
2023-01-13T05:28:34.301Z,100149.63
2023-01-13T05:31:00.883Z,100139.53
2023-01-13T05:33:27.395Z,100142.25
2023-01-13T05:35:53.855Z,100136.06
2023-01-13T05:38:21.669Z,100141.50
2023-01-13T05:41:08.016Z,100134.53
2023-01-13T05:43:34.986Z,100138.50
2023-01-13T05:46:09.288Z,100133.81
2023-01-13T05:48:38.684Z,100126.91
2023-01-13T05:51:08.098Z,100128.38
2023-01-13T05:53:35.463Z,100133.66
2023-01-13T05:56:05.699Z,100133.31
2023-01-13T05:58:32.570Z,100128.88
2023-01-13T06:01:06.305Z,100126.28
2023-01-13T06:03:33.601Z,100129.69
2023-01-13T06:06:02.084Z,100124.97
2023-01-13T06:08:29.035Z,100128.03
2023-01-13T06:10:55.526Z,100139.53
2023-01-13T06:13:22.159Z,100139.94
2023-01-13T06:15:48.709Z,100134.13
2023-01-13T06:18:15.348Z,100127.41
2023-01-13T06:20:41.860Z,100131.69
2023-01-13T06:23:10.832Z,100136.28
2023-01-13T06:26:03.411Z,100126.22
2023-01-13T06:28:29.868Z,100130.06
2023-01-13T06:31:00.152Z,100136.34
2023-01-13T06:33:35.267Z,100137.88
2023-01-13T06:36:05.920Z,100135.28
2023-01-13T06:38:35.802Z,100136.84
2023-01-13T06:41:03.455Z,100130.75
2023-01-13T06:43:29.969Z,100135.50
2023-01-13T06:45:56.820Z,100133.34
2023-01-13T06:48:27.856Z,100129.94
2023-01-13T06:50:54.394Z,100131.72
2023-01-13T06:53:20.984Z,100120.16
2023-01-13T06:55:47.575Z,100123.16
2023-01-13T06:58:14.081Z,100122.19
2023-01-13T07:00:40.756Z,100122.47
2023-01-13T07:03:12.263Z,100132.41
2023-01-13T07:05:39.960Z,100124.25
2023-01-13T07:08:07.415Z,100121.81
2023-01-13T07:10:34.939Z,100116.38
2023-01-13T07:13:21.241Z,100127.75
2023-01-13T07:15:55.238Z,100130.22
2023-01-13T07:18:22.041Z,100125.81
2023-01-13T07:21:00.149Z,100129.75
2023-01-13T07:23:38.365Z,100127.03
2023-01-13T07:26:05.491Z,100128.53
2023-01-13T07:28:32.560Z,100130.78
2023-01-13T07:30:59.466Z,100124.59
2023-01-13T07:33:26.215Z,100133.03
2023-01-13T07:35:57.834Z,100130.31
2023-01-13T07:38:24.743Z,100132.28
2023-01-13T07:40:51.259Z,100140.44
2023-01-13T07:43:32.594Z,100134.44
2023-01-13T07:46:04.920Z,100134.25
2023-01-13T07:48:33.528Z,100136.75
2023-01-13T07:51:05.435Z,100125.59
2023-01-13T07:53:32.451Z,100135.03
2023-01-13T07:55:59.627Z,100141.91
2023-01-13T07:58:27.011Z,100145.72
2023-01-13T08:03:21.865Z,100141.22
2023-01-13T08:05:48.411Z,100133.31
2023-01-13T08:08:15.311Z,100147.72
2023-01-13T08:10:42.109Z,100146.84
2023-01-13T08:13:19.793Z,100143.94
2023-01-13T08:16:08.431Z,100147.72
2023-01-13T08:18:36.019Z,100145.03
2023-01-13T08:21:05.873Z,100146.78
2023-01-13T08:23:32.412Z,100149.78
2023-01-13T08:26:04.545Z,100152.50
2023-01-13T08:28:31.349Z,100158.97
2023-01-13T08:31:02.728Z,100157.47
2023-01-13T08:33:29.366Z,100151.53
2023-01-13T08:35:56.328Z,100155.25
2023-01-13T08:38:24.024Z,100154.53
2023-01-13T08:40:50.864Z,100158.72
2023-01-13T08:43:17.356Z,100157.97
2023-01-13T08:45:43.872Z,100152.84
2023-01-13T08:48:10.633Z,100155.25
2023-01-13T08:50:37.404Z,100147.84
2023-01-13T08:53:03.968Z,100142.16
2023-01-13T08:55:30.414Z,100136.19
2023-01-13T08:58:14.210Z,100136.72
2023-01-13T09:00:42.224Z,100144.56
2023-01-13T09:03:08.793Z,100143.38
2023-01-13T09:05:35.828Z,100148.06
2023-01-13T09:08:02.358Z,100141.41
2023-01-13T09:10:28.924Z,100157.00
2023-01-13T09:13:13.632Z,100150.03
2023-01-13T09:15:42.467Z,100154.75
2023-01-13T09:18:09.108Z,100161.69
2023-01-13T09:20:36.030Z,100157.00
2023-01-13T09:23:02.964Z,100156.25
2023-01-13T09:25:29.508Z,100166.34
2023-01-13T09:27:57.287Z,100175.03
2023-01-13T09:30:24.394Z,100173.53
2023-01-13T09:33:10.848Z,100178.22
2023-01-13T09:35:37.291Z,100160.41
2023-01-13T09:38:04.435Z,100168.56
2023-01-13T09:40:30.905Z,100175.72
2023-01-13T09:43:24.998Z,100167.56
2023-01-13T09:45:53.888Z,100157.41
2023-01-13T09:48:35.273Z,100161.34
2023-01-13T09:51:20.918Z,100166.06
2023-01-13T09:53:55.715Z,100162.09
2023-01-13T09:56:23.431Z,100155.91
2023-01-13T09:58:50.522Z,100148.78
2023-01-13T10:01:29.662Z,100155.72
2023-01-13T10:03:56.214Z,100141.63
2023-01-13T10:06:42.518Z,100142.09
2023-01-13T10:09:18.560Z,100150.53
2023-01-13T10:12:16.678Z,100138.41
2023-01-13T10:14:56.999Z,100147.31
2023-01-13T10:17:46.002Z,100144.56
2023-01-13T10:20:22.116Z,100139.13
2023-01-13T10:23:26.471Z,100141.41
2023-01-13T10:26:04.750Z,100129.50
2023-01-13T10:28:34.431Z,100144.34
2023-01-13T10:31:01.272Z,100149.31
2023-01-13T10:33:28.578Z,100136.41
2023-01-13T10:36:00.677Z,100141.66
2023-01-13T10:38:29.024Z,100134.97
2023-01-13T10:41:18.216Z,100125.59
2023-01-13T10:44:13.322Z,100121.16
2023-01-13T10:47:00.126Z,100135.28
2023-01-13T10:49:36.422Z,100140.25
2023-01-13T10:52:23.865Z,100132.38
2023-01-13T10:54:55.125Z,100138.56
2023-01-13T10:57:24.900Z,100144.31
2023-01-13T10:59:53.036Z,100142.59
2023-01-13T11:02:27.176Z,100146.59
2023-01-13T11:05:00.524Z,100143.66
2023-01-13T11:07:39.518Z,100149.84
2023-01-13T11:10:05.951Z,100141.66
2023-01-13T11:12:34.571Z,100145.63
2023-01-13T11:15:05.824Z,100150.38
2023-01-13T11:17:40.559Z,100141.72
2023-01-13T11:20:16.812Z,100142.94
2023-01-13T11:22:49.667Z,100137.50
2023-01-13T11:25:21.079Z,100145.41
2023-01-13T11:27:53.084Z,100137.25
2023-01-13T11:30:33.603Z,100128.31
2023-01-13T11:33:15.209Z,100139.22
2023-01-13T11:35:46.018Z,100141.19
2023-01-13T11:38:47.847Z,100134.25
2023-01-13T11:41:46.927Z,100136.22
2023-01-13T11:44:20.980Z,100136.22
2023-01-13T11:46:50.463Z,100134.72
2023-01-13T11:49:29.423Z,100123.13
2023-01-13T11:52:20.884Z,100118.59
2023-01-13T11:55:16.315Z,100120.09
2023-01-13T11:58:08.748Z,100128.72
2023-01-13T12:01:06.157Z,100115.34
2023-01-13T12:03:48.315Z,100110.38
2023-01-13T12:06:41.567Z,100119.50
2023-01-13T12:09:16.371Z,100118.47
2023-01-13T12:12:17.791Z,100123.88
2023-01-13T12:15:02.950Z,100120.91
2023-01-13T12:17:50.830Z,100120.84
2023-01-13T12:20:35.639Z,100128.75
2023-01-13T12:23:10.809Z,100152.50
2023-01-13T12:25:52.669Z,100145.03
2023-01-13T12:28:45.433Z,100156.41
2023-01-13T12:31:13.599Z,100160.34
2023-01-13T12:33:58.243Z,100158.63
2023-01-13T12:36:27.741Z,100167.56
2023-01-13T12:39:09.466Z,100171.50
2023-01-13T12:42:03.479Z,100167.00
2023-01-13T12:44:30.196Z,100164.28
2023-01-13T12:47:00.055Z,100158.81
2023-01-13T12:49:34.138Z,100155.03
2023-01-13T12:52:16.154Z,100158.06
2023-01-13T12:54:44.409Z,100147.19
2023-01-13T12:57:24.282Z,100151.13
2023-01-13T13:00:02.632Z,100148.41
2023-01-13T13:02:42.999Z,100149.59
2023-01-13T13:05:26.771Z,100146.13
2023-01-13T13:08:08.463Z,100148.13
2023-01-13T13:10:41.540Z,100153.56
2023-01-13T13:13:24.466Z,100148.84
2023-01-13T13:16:13.089Z,100146.63
2023-01-13T13:18:42.669Z,100155.81
2023-01-13T13:21:12.089Z,100158.28
2023-01-13T13:24:04.663Z,100149.34
2023-01-13T13:26:37.169Z,100157.25
2023-01-13T13:29:29.298Z,100151.75
2023-01-13T13:32:22.175Z,100145.28
2023-01-13T13:34:59.049Z,100168.31
2023-01-13T13:38:04.814Z,100151.97
2023-01-13T13:40:57.656Z,100158.34
2023-01-13T13:43:44.040Z,100157.78
2023-01-13T13:46:48.007Z,100166.16
2023-01-13T13:49:22.255Z,100169.38
2023-01-13T13:52:01.609Z,100183.94
2023-01-13T13:54:28.274Z,100169.81
2023-01-13T13:56:54.989Z,100176.44
2023-01-13T13:59:24.365Z,100185.84
2023-01-13T14:04:28.059Z,100186.50
2023-01-13T14:07:22.645Z,100183.53
2023-01-13T14:09:54.311Z,100189.72
2023-01-13T14:12:23.268Z,100190.41
2023-01-13T14:14:50.893Z,100187.22
2023-01-13T14:17:28.734Z,100192.38
2023-01-13T14:20:02.942Z,100192.09
2023-01-13T14:22:29.476Z,100192.09
2023-01-13T14:24:57.751Z,100204.94
2023-01-13T14:27:27.761Z,100201.47
2023-01-13T14:29:56.507Z,100210.09
2023-01-13T14:32:29.295Z,100212.81
2023-01-13T14:34:55.687Z,100212.53
2023-01-13T14:37:22.075Z,100211.59
2023-01-13T14:39:48.566Z,100212.81
2023-01-13T14:42:17.096Z,100217.22
2023-01-13T14:44:47.652Z,100215.72
2023-01-13T14:47:29.373Z,100218.19
2023-01-13T14:50:03.759Z,100223.84
2023-01-13T14:52:33.826Z,100221.84
2023-01-13T14:55:10.186Z,100230.47
2023-01-13T14:57:41.628Z,100230.19
2023-01-13T15:00:14.318Z,100241.81
2023-01-13T15:02:47.904Z,100231.69
2023-01-13T15:05:17.631Z,100236.38
2023-01-13T15:08:04.553Z,100236.88
2023-01-13T15:10:38.061Z,100253.19
2023-01-13T15:13:06.574Z,100249.22
2023-01-13T15:15:35.806Z,100241.56
2023-01-13T15:18:11.002Z,100247.25
2023-01-13T15:20:39.183Z,100249.50
2023-01-13T15:23:05.802Z,100250.72
2023-01-13T15:25:37.399Z,100258.41
2023-01-13T15:28:05.982Z,100257.19
2023-01-13T15:30:32.829Z,100263.38
2023-01-13T15:33:00.082Z,100260.94
2023-01-13T15:35:28.680Z,100257.72
2023-01-13T15:37:56.954Z,100267.38
2023-01-13T15:40:25.197Z,100259.22
2023-01-13T15:43:10.332Z,100253.78
2023-01-13T15:45:56.117Z,100266.16
2023-01-13T15:48:24.728Z,100280.50
2023-01-13T15:50:51.653Z,100280.78
2023-01-13T15:53:18.169Z,100279.56
2023-01-13T15:55:48.930Z,100278.81
2023-01-13T15:58:18.880Z,100281.81
2023-01-13T16:00:45.395Z,100268.22
2023-01-13T16:03:16.601Z,100273.66
2023-01-13T16:05:44.295Z,100283.78
2023-01-13T16:08:15.938Z,100268.97
2023-01-13T16:10:42.973Z,100292.50
2023-01-13T16:13:09.885Z,100275.88
2023-01-13T16:15:36.768Z,100281.31
2023-01-13T16:18:04.495Z,100287.53
2023-01-13T16:20:31.173Z,100299.16
2023-01-13T16:22:57.637Z,100306.84
2023-01-13T16:25:26.499Z,100298.69
2023-01-13T16:27:53.159Z,100298.19
2023-01-13T16:30:27.503Z,100316.47
2023-01-13T16:32:55.107Z,100313.28
2023-01-13T16:35:22.828Z,100302.88
2023-01-13T16:37:49.652Z,100321.16
2023-01-13T16:40:31.073Z,100328.09
2023-01-13T16:42:58.011Z,100330.06
2023-01-13T16:45:25.078Z,100335.50
2023-01-13T16:47:51.622Z,100334.75
2023-01-13T16:50:39.816Z,100337.66
2023-01-13T16:53:10.786Z,100338.91
2023-01-13T16:55:41.154Z,100335.16
2023-01-13T16:58:17.349Z,100346.50
2023-01-13T17:00:46.809Z,100350.44
2023-01-13T17:03:14.568Z,100342.75
2023-01-13T17:05:43.157Z,100348.66
2023-01-13T17:08:18.013Z,100352.78
2023-01-13T17:10:47.789Z,100358.69
2023-01-13T17:13:16.682Z,100357.66
2023-01-13T17:15:44.594Z,100359.84
2023-01-13T17:18:13.247Z,100364.25
2023-01-13T17:20:39.893Z,100366.38
2023-01-13T17:23:06.367Z,100373.31
2023-01-13T17:25:32.831Z,100380.47
2023-01-13T17:27:59.376Z,100377.44
2023-01-13T17:30:25.884Z,100398.00
2023-01-13T17:32:52.353Z,100406.44
2023-01-13T17:35:24.460Z,100404.16
2023-01-13T17:37:52.345Z,100409.44
2023-01-13T17:40:18.881Z,100422.06
2023-01-13T17:42:45.449Z,100428.81
2023-01-13T17:45:12.385Z,100422.72
2023-01-13T17:47:39.003Z,100431.16
2023-01-13T17:50:06.058Z,100417.09
2023-01-13T17:52:33.819Z,100419.66
2023-01-13T17:55:00.274Z,100430.34
2023-01-13T17:57:26.951Z,100440.00
2023-01-13T17:59:53.409Z,100435.88
2023-01-13T18:02:20.002Z,100438.59
2023-01-13T18:04:46.657Z,100449.25
2023-01-13T18:07:13.100Z,100448.06
2023-01-13T18:09:39.570Z,100450.56
2023-01-13T18:12:06.403Z,100459.94
2023-01-13T18:14:32.924Z,100457.53
2023-01-13T18:16:59.533Z,100450.38
2023-01-13T18:20:04.463Z,100457.03
2023-01-13T18:22:57.227Z,100457.34
2023-01-13T18:25:42.621Z,100450.38
2023-01-13T18:28:09.124Z,100469.44
2023-01-13T18:30:35.650Z,100462.50
2023-01-13T18:33:02.168Z,100467.94
2023-01-13T18:35:30.035Z,100470.66
2023-01-13T18:37:56.620Z,100479.56
2023-01-13T18:40:23.081Z,100478.81
2023-01-13T18:42:54.059Z,100481.53
2023-01-13T18:45:26.599Z,100486.22
2023-01-13T18:47:55.083Z,100482.28
2023-01-13T18:50:22.384Z,100489.97
2023-01-13T18:55:15.891Z,100495.63
2023-01-13T18:57:42.594Z,100511.94
2023-01-13T19:00:11.775Z,100514.66
2023-01-13T19:02:38.740Z,100522.81
2023-01-13T19:05:05.781Z,100529.44
2023-01-13T19:10:02.198Z,100529.72
2023-01-13T19:12:30.885Z,100524.00
2023-01-13T19:17:27.160Z,100529.44
2023-01-13T19:19:55.791Z,100543.03
2023-01-13T19:22:32.576Z,100545.00
2023-01-13T19:24:59.478Z,100548.03
2023-01-13T19:27:27.551Z,100572.97
2023-01-13T19:29:57.471Z,100573.44
2023-01-13T19:32:24.922Z,100576.16
2023-01-13T19:34:51.676Z,100583.84
2023-01-13T19:37:18.854Z,100592.47
2023-01-13T19:39:45.433Z,100584.81
2023-01-13T19:42:30.998Z,100593.97
2023-01-13T19:45:16.307Z,100589.28
2023-01-13T19:47:45.411Z,100588.53
2023-01-13T19:50:13.524Z,100581.59
2023-01-13T19:52:41.449Z,100586.28
2023-01-13T19:55:09.558Z,100597.91
2023-01-13T19:57:36.937Z,100603.34
2023-01-13T20:00:05.640Z,100613.75
2023-01-13T20:02:32.237Z,100614.22
2023-01-13T20:05:00.898Z,100622.38
2023-01-13T20:07:29.845Z,100617.13
2023-01-13T20:09:56.836Z,100622.13
2023-01-13T20:12:26.452Z,100640.66
2023-01-13T20:14:53.118Z,100630.53
2023-01-13T20:17:21.554Z,100629.31
2023-01-13T20:19:48.194Z,100629.78
2023-01-13T20:22:14.882Z,100630.28
2023-01-13T20:24:41.670Z,100654.75
2023-01-13T20:27:08.283Z,100643.38
2023-01-13T20:29:35.075Z,100648.81
2023-01-13T20:32:01.949Z,100650.06
2023-01-13T20:34:28.513Z,100665.16
2023-01-13T20:36:54.979Z,100655.50
2023-01-13T20:39:25.442Z,100662.91
2023-01-13T20:42:10.477Z,100678.00
2023-01-13T20:44:37.030Z,100668.63
2023-01-13T20:47:03.799Z,100674.06
2023-01-13T20:49:31.208Z,100677.28
2023-01-13T20:51:59.009Z,100673.31
2023-01-13T20:54:26.447Z,100682.72
2023-01-13T20:56:53.637Z,100682.22
2023-01-13T20:59:20.715Z,100697.78
2023-01-13T21:01:47.288Z,100691.13
2023-01-13T21:04:13.784Z,100695.34
2023-01-13T21:06:41.588Z,100707.44
2023-01-13T21:09:08.869Z,100714.84
2023-01-13T21:11:53.774Z,100695.81
2023-01-13T21:14:41.783Z,100708.97
2023-01-13T21:17:28.660Z,100713.63
2023-01-13T21:19:55.426Z,100721.50
2023-01-13T21:22:22.015Z,100726.22
2023-01-13T21:24:48.492Z,100725.91
2023-01-13T21:27:15.176Z,100727.44
2023-01-13T21:29:43.960Z,100727.88
2023-01-13T21:32:10.874Z,100726.66
2023-01-13T21:34:37.350Z,100729.38
2023-01-13T21:37:03.850Z,100733.63
2023-01-13T21:39:30.356Z,100735.59
2023-01-13T21:42:15.438Z,100745.25
2023-01-13T21:45:00.207Z,100747.97
2023-01-13T21:47:45.039Z,100747.97
2023-01-13T21:50:12.883Z,100755.38
2023-01-13T21:52:42.572Z,100750.38
2023-01-13T21:55:17.091Z,100757.78
2023-01-13T21:57:52.082Z,100760.50
2023-01-13T22:00:20.296Z,100772.88
2023-01-13T22:02:47.930Z,100781.06
2023-01-13T22:05:17.324Z,100783.03
2023-01-13T22:07:44.247Z,100787.53
2023-01-13T22:10:13.357Z,100783.78
2023-01-13T22:12:40.388Z,100796.94
2023-01-13T22:15:07.701Z,100791.50
2023-01-13T22:17:34.273Z,100800.88
2023-01-13T22:20:01.333Z,100812.50
2023-01-13T22:22:29.091Z,100804.34
2023-01-13T22:24:55.707Z,100801.63
2023-01-13T22:27:25.350Z,100810.22
2023-01-13T22:29:52.957Z,100816.13
2023-01-13T22:32:20.895Z,100819.75
2023-01-13T22:34:48.112Z,100817.97
2023-01-13T22:37:14.991Z,100821.59
2023-01-13T22:39:41.620Z,100812.69
2023-01-13T22:42:10.004Z,100826.75
2023-01-13T22:44:36.455Z,100825.25
2023-01-13T22:47:02.960Z,100828.59
2023-01-13T22:49:29.455Z,100835.97
2023-01-13T22:51:56.010Z,100829.94
2023-01-13T22:54:22.518Z,100845.69
2023-01-13T22:56:48.974Z,100844.16
2023-01-13T22:59:16.973Z,100861.09
2023-01-13T23:01:43.863Z,100853.06
2023-01-13T23:04:13.164Z,100859.47
2023-01-13T23:06:40.331Z,100872.00
2023-01-13T23:09:07.674Z,100868.22
2023-01-13T23:11:34.311Z,100873.06
2023-01-13T23:14:03.607Z,100873.19
2023-01-13T23:16:32.608Z,100869.88
2023-01-13T23:18:59.183Z,100869.13
2023-01-13T23:21:29.814Z,100875.19
2023-01-13T23:23:58.671Z,100876.81
2023-01-13T23:26:26.499Z,100869.16
2023-01-13T23:28:53.134Z,100872.47
2023-01-13T23:31:21.963Z,100884.56
2023-01-13T23:33:49.162Z,100882.75
2023-01-13T23:36:24.165Z,100885.59
2023-01-13T23:38:51.696Z,100876.88
2023-01-13T23:41:20.838Z,100887.41
2023-01-13T23:43:52.499Z,100880.94
2023-01-13T23:46:20.252Z,100896.16
2023-01-13T23:48:47.428Z,100904.28
2023-01-13T23:51:14.284Z,100901.31
2023-01-13T23:53:46.961Z,100908.84
2023-01-13T23:56:22.058Z,100911.22
2023-01-13T23:58:49.116Z,100913.22
